createdAt,value
2022-11-25T00:00:39.026Z,99389.55
2022-11-25T00:01:41.589Z,99391.27
2022-11-25T00:02:44.988Z,99393.11
2022-11-25T00:03:48.290Z,99393.11
2022-11-25T00:04:53.244Z,99387.75
2022-11-25T00:05:56.070Z,99395.78
2022-11-25T00:06:59.033Z,99397.59
2022-11-25T00:08:01.050Z,99394.91
2022-11-25T00:09:06.114Z,99386.88
2022-11-25T00:10:09.844Z,99392.23
2022-11-25T00:11:12.280Z,99400.27
2022-11-25T00:12:15.537Z,99398.58
2022-11-25T00:13:18.323Z,99402.09
2022-11-25T00:14:21.749Z,99401.26
2022-11-25T00:15:23.910Z,99397.67
2022-11-25T00:16:26.191Z,99399.52
2022-11-25T00:17:48.116Z,99403.03
2022-11-25T00:18:51.349Z,99403.03
2022-11-25T00:19:53.727Z,99406.67
2022-11-25T00:20:56.999Z,99406.67
2022-11-25T00:21:59.710Z,99404.87
2022-11-25T00:23:02.431Z,99410.22
2022-11-25T00:24:06.652Z,99405.83
2022-11-25T00:25:08.902Z,99394.61
2022-11-25T00:26:12.693Z,99394.61
2022-11-25T00:27:14.907Z,99405.83
2022-11-25T00:28:17.503Z,99408.51
2022-11-25T00:29:19.493Z,99406.80
2022-11-25T00:30:22.124Z,99407.66
2022-11-25T00:31:26.492Z,99400.47
2022-11-25T00:32:29.452Z,99404.98
2022-11-25T00:33:33.683Z,99407.66
2022-11-25T00:34:36.908Z,99400.47
2022-11-25T00:35:39.358Z,99401.44
2022-11-25T00:36:41.994Z,99401.44
2022-11-25T00:37:44.186Z,99406.80
2022-11-25T00:38:46.673Z,99405.95
2022-11-25T00:39:49.839Z,99407.79
2022-11-25T00:40:52.544Z,99407.79
2022-11-25T00:41:54.716Z,99407.66
2022-11-25T00:42:57.126Z,99404.11
2022-11-25T00:43:59.125Z,99406.80
2022-11-25T00:45:01.746Z,99405.11
2022-11-25T00:46:04.732Z,99406.80
2022-11-25T00:47:15.631Z,99402.44
2022-11-25T00:48:17.760Z,99403.28
2022-11-25T00:49:19.944Z,99402.44
2022-11-25T00:50:23.236Z,99402.44
2022-11-25T00:51:25.392Z,99400.72
2022-11-25T00:52:27.522Z,99402.55
2022-11-25T00:53:31.741Z,99404.23
2022-11-25T00:54:35.152Z,99404.23
2022-11-25T00:55:37.554Z,99408.63
2022-11-25T00:56:39.615Z,99409.59
2022-11-25T00:57:42.796Z,99409.59
2022-11-25T00:58:44.927Z,99407.79
2022-11-25T00:59:47.368Z,99407.79
2022-11-25T01:00:49.577Z,99405.11
2022-11-25T01:01:51.958Z,99405.11
2022-11-25T01:02:54.735Z,99402.44
2022-11-25T01:03:57.526Z,99404.23
2022-11-25T01:04:59.615Z,99407.79
2022-11-25T01:06:03.666Z,99404.23
2022-11-25T01:07:05.911Z,99405.11
2022-11-25T01:08:09.743Z,99413.14
2022-11-25T01:09:13.545Z,99408.75
2022-11-25T01:10:15.780Z,99410.47
2022-11-25T01:11:20.652Z,99405.95
2022-11-25T01:12:23.286Z,99413.98
2022-11-25T01:13:26.804Z,99413.98
2022-11-25T01:14:31.385Z,99418.50
2022-11-25T01:15:38.598Z,99410.47
2022-11-25T01:16:41.046Z,99413.14
2022-11-25T01:17:43.645Z,99421.17
2022-11-25T01:18:47.781Z,99411.30
2022-11-25T01:19:50.165Z,99415.82
2022-11-25T01:20:55.477Z,99413.14
2022-11-25T01:21:59.496Z,99417.50
2022-11-25T01:23:02.151Z,99415.82
2022-11-25T01:24:05.433Z,99418.50
2022-11-25T01:25:08.898Z,99412.27
2022-11-25T01:26:13.838Z,99421.17
2022-11-25T01:27:16.106Z,99420.30
2022-11-25T01:28:18.200Z,99420.30
2022-11-25T01:29:21.192Z,99425.54
2022-11-25T01:30:23.617Z,99419.46
2022-11-25T01:31:27.270Z,99425.66
2022-11-25T01:32:29.590Z,99426.53
2022-11-25T01:33:31.898Z,99425.66
2022-11-25T01:34:34.732Z,99420.30
2022-11-25T01:35:37.802Z,99421.17
2022-11-25T01:36:42.357Z,99425.66
2022-11-25T01:37:45.412Z,99426.74
2022-11-25T01:40:06.071Z,99420.30
2022-11-25T01:42:13.496Z,99422.56
2022-11-25T01:43:16.291Z,99420.24
2022-11-25T01:44:21.658Z,99420.48
2022-11-25T01:46:57.328Z,99422.92
2022-11-25T01:48:03.023Z,99426.52
2022-11-25T01:49:06.778Z,99431.23
2022-11-25T01:50:09.612Z,99433.30
2022-11-25T06:55:22.186Z,99649.90
2022-11-25T06:56:26.358Z,99652.17
2022-11-25T06:57:29.160Z,99656.95
2022-11-25T06:58:36.134Z,99658.30
2022-11-25T06:59:36.325Z,99663.11
2022-11-25T07:00:38.879Z,99656.22
2022-11-25T07:01:41.517Z,99666.24
2022-11-25T07:02:48.229Z,99664.67
2022-11-25T07:03:49.049Z,99668.39
2022-11-25T07:04:51.181Z,99673.08
2022-11-25T07:05:56.004Z,99672.44
2022-11-25T07:06:58.575Z,99669.12
2022-11-25T07:08:01.209Z,99672.92
2022-11-25T07:09:03.943Z,99673.30
2022-11-25T07:10:08.692Z,99674.46
2022-11-25T07:11:21.907Z,99673.89
2022-11-25T07:12:24.324Z,99676.94
2022-11-25T07:13:28.140Z,99679.88
2022-11-25T07:14:30.444Z,99680.25
2022-11-25T07:15:33.995Z,99685.17
2022-11-25T07:16:37.155Z,99681.18
2022-11-25T07:17:39.288Z,99683.44
2022-11-25T07:18:42.316Z,99693.70
2022-11-25T07:19:44.823Z,99676.42
2022-11-25T07:20:46.932Z,99689.50
2022-11-25T07:21:49.028Z,99684.72
2022-11-25T07:22:51.744Z,99685.28
2022-11-25T07:23:53.870Z,99689.47
2022-11-25T07:24:55.997Z,99697.20
2022-11-25T07:26:06.381Z,99694.21
2022-11-25T07:27:09.660Z,99694.84
2022-11-25T07:28:11.894Z,99693.68
2022-11-25T07:29:54.167Z,99697.02
2022-11-25T07:31:09.841Z,99701.31
2022-11-25T07:32:42.869Z,99698.34
2022-11-25T07:33:45.662Z,99705.17
2022-11-25T07:34:50.290Z,99705.06
2022-11-25T07:35:52.576Z,99704.00
2022-11-25T07:36:54.936Z,99713.53
2022-11-25T07:37:57.665Z,99717.05
2022-11-25T07:39:00.940Z,99713.31
2022-11-25T07:40:04.954Z,99715.88
2022-11-25T07:41:08.701Z,99720.17
2022-11-25T07:42:10.930Z,99714.72
2022-11-25T07:43:13.080Z,99716.44
2022-11-25T07:44:15.467Z,99716.22
2022-11-25T07:45:20.379Z,99718.89
2022-11-25T07:46:27.723Z,99716.99
2022-11-25T07:47:33.605Z,99719.55
2022-11-25T07:48:35.732Z,99723.95
2022-11-25T07:49:38.322Z,99726.63
2022-11-25T07:50:40.902Z,99730.03
2022-11-25T07:51:54.599Z,99723.73
2022-11-25T07:52:57.088Z,99721.91
2022-11-25T07:53:59.870Z,99720.95
2022-11-25T07:55:02.926Z,99722.67
2022-11-25T07:56:06.061Z,99726.19
2022-11-25T07:57:08.211Z,99730.59
2022-11-25T07:58:11.350Z,99726.09
2022-11-25T07:59:15.394Z,99723.41
2022-11-25T08:00:18.568Z,99725.98
2022-11-25T08:01:20.941Z,99730.38
2022-11-25T08:02:23.277Z,99734.00
2022-11-25T08:03:25.714Z,99728.66
2022-11-25T08:04:29.101Z,99731.33
2022-11-25T08:05:33.179Z,99728.55
2022-11-25T08:06:39.739Z,99725.88
2022-11-25T08:07:42.008Z,99727.48
2022-11-25T08:08:44.243Z,99729.31
2022-11-25T08:09:46.329Z,99727.48
2022-11-25T08:10:48.536Z,99725.69
2022-11-25T08:11:54.728Z,99723.01
2022-11-25T08:12:57.055Z,99723.01
2022-11-25T08:13:59.688Z,99724.80
2022-11-25T08:15:02.004Z,99730.05
2022-11-25T08:16:05.026Z,99722.02
2022-11-25T08:17:07.397Z,99722.90
2022-11-25T08:18:09.569Z,99724.70
2022-11-25T08:19:14.217Z,99723.75
2022-11-25T08:21:29.553Z,99721.32
2022-11-25T08:22:31.569Z,99722.90
2022-11-25T08:23:33.786Z,99721.07
2022-11-25T08:24:35.889Z,99723.75
2022-11-25T08:25:43.034Z,99727.27
2022-11-25T08:26:45.667Z,99728.98
2022-11-25T08:27:48.845Z,99728.14
2022-11-25T08:28:52.077Z,99735.21
2022-11-25T08:29:54.792Z,99727.19
2022-11-25T08:31:05.798Z,99730.70
2022-11-25T08:32:11.960Z,99736.94
2022-11-25T08:33:13.068Z,99734.33
2022-11-25T08:34:19.766Z,99735.21
2022-11-25T08:35:24.094Z,99731.66
2022-11-25T08:36:28.173Z,99737.88
2022-11-25T08:37:30.909Z,99743.23
2022-11-25T08:38:33.383Z,99736.16
2022-11-25T08:39:51.844Z,99735.21
2022-11-25T08:40:42.910Z,99740.56
2022-11-25T08:41:46.555Z,99740.56
2022-11-25T08:42:49.422Z,99737.88
2022-11-25T08:43:52.418Z,99739.68
2022-11-25T08:44:55.105Z,99737.01
2022-11-25T08:45:57.202Z,99741.52
2022-11-25T08:46:59.532Z,99745.03
2022-11-25T08:48:01.767Z,99750.38
2022-11-25T08:49:04.738Z,99750.38
2022-11-25T08:50:09.754Z,99747.63
2022-11-25T08:51:13.979Z,99740.56
2022-11-25T08:52:16.573Z,99747.70
2022-11-25T08:53:20.549Z,99741.41
2022-11-25T08:54:22.783Z,99741.52
2022-11-25T08:55:25.298Z,99746.86
2022-11-25T08:56:27.490Z,99744.19
2022-11-25T08:57:30.537Z,99750.38
2022-11-25T08:58:33.739Z,99740.56
2022-11-25T08:59:36.808Z,99744.19
2022-11-25T09:00:40.503Z,99737.88
2022-11-25T09:01:43.216Z,99737.88
2022-11-25T09:02:46.544Z,99737.88
2022-11-25T09:03:51.132Z,99735.21
2022-11-25T09:04:53.210Z,99731.66
2022-11-25T09:05:55.859Z,99735.21
2022-11-25T09:06:58.201Z,99727.19
2022-11-25T09:08:00.573Z,99736.05
2022-11-25T09:09:03.611Z,99736.05
2022-11-25T09:10:07.831Z,99735.13
2022-11-25T09:11:10.739Z,99738.66
2022-11-25T09:12:13.485Z,99740.48
2022-11-25T09:13:16.160Z,99741.33
2022-11-25T09:14:18.709Z,99739.50
2022-11-25T09:15:20.767Z,99731.47
2022-11-25T09:16:23.074Z,99734.15
2022-11-25T09:17:25.312Z,99735.02
2022-11-25T09:18:27.340Z,99727.37
2022-11-25T09:19:29.364Z,99727.37
2022-11-25T09:20:32.046Z,99736.05
2022-11-25T09:21:34.147Z,99741.52
2022-11-25T09:22:36.241Z,99746.86
2022-11-25T09:23:39.636Z,99746.09
2022-11-25T09:24:41.883Z,99751.44
2022-11-25T09:25:55.418Z,99751.44
2022-11-25T09:26:57.759Z,99744.30
2022-11-25T09:27:59.851Z,99746.97
2022-11-25T09:29:02.349Z,99740.75
2022-11-25T09:30:06.255Z,99747.92
2022-11-25T09:31:08.860Z,99740.75
2022-11-25T09:32:11.155Z,99745.25
2022-11-25T09:33:13.723Z,99745.36
2022-11-25T09:34:16.429Z,99746.31
2022-11-25T09:35:18.827Z,99740.96
2022-11-25T09:36:21.779Z,99738.39
2022-11-25T09:37:24.898Z,99739.34
2022-11-25T09:38:27.614Z,99747.38
2022-11-25T09:39:30.204Z,99736.78
2022-11-25T09:40:36.186Z,99738.72
2022-11-25T09:41:47.878Z,99737.73
2022-11-25T09:42:58.772Z,99748.36
2022-11-25T09:44:05.211Z,99741.28
2022-11-25T09:45:26.196Z,99742.13
2022-11-25T09:46:38.373Z,99741.28
2022-11-25T09:48:16.872Z,99744.06
2022-11-25T09:49:31.703Z,99739.67
2022-11-25T09:51:06.780Z,99741.58
2022-11-25T09:52:29.531Z,99744.36
2022-11-25T09:53:44.365Z,99745.45
2022-11-25T09:54:56.886Z,99751.75
2022-11-25T09:56:02.327Z,99749.29
2022-11-25T09:57:25.988Z,99746.69
2022-11-25T09:58:40.606Z,99746.80
2022-11-25T10:00:07.834Z,99744.13
2022-11-25T10:01:20.162Z,99745.11
2022-11-25T10:03:42.926Z,99742.56
2022-11-25T10:04:54.998Z,99746.80
2022-11-25T10:07:22.727Z,99741.50
2022-11-25T10:08:28.071Z,99753.76
2022-11-25T10:09:34.441Z,99743.06
2022-11-25T10:10:45.996Z,99749.19
2022-11-25T10:11:54.026Z,99752.59
2022-11-25T10:12:57.104Z,99745.45
2022-11-25T14:15:41.681Z,99845.53
2022-11-25T14:16:59.407Z,99845.84
2022-11-25T14:19:03.257Z,99844.26
2022-11-25T14:19:57.883Z,99845.15
2022-11-25T14:22:25.105Z,99842.09
2022-11-25T14:23:43.802Z,99848.09
2022-11-25T14:24:47.859Z,99845.51
2022-11-25T14:25:52.722Z,99848.91
2022-11-25T14:26:55.829Z,99843.70
2022-11-25T14:28:09.888Z,99849.95
2022-11-25T14:30:30.000Z,99842.13
2022-11-25T14:31:35.463Z,99840.30
2022-11-25T14:32:42.025Z,99850.42
2022-11-25T14:35:12.592Z,99847.28
2022-11-25T14:37:39.300Z,99853.06
2022-11-25T14:40:09.429Z,99853.69
2022-11-25T14:41:20.875Z,99852.17
2022-11-25T14:42:24.285Z,99856.93
2022-11-25T14:43:26.662Z,99848.50
2022-11-25T14:44:46.904Z,99855.15
2022-11-25T14:47:34.594Z,99849.09
2022-11-25T14:48:35.229Z,99852.12
2022-11-25T14:51:05.755Z,99858.94
2022-11-25T14:52:08.101Z,99858.52
2022-11-25T14:53:10.748Z,99859.15
2022-11-25T14:54:16.153Z,99860.77
2022-11-25T14:55:29.952Z,99864.11
2022-11-25T14:56:33.986Z,99863.05
2022-11-25T14:57:40.476Z,99866.46
2022-11-25T14:58:47.932Z,99870.64
2022-11-25T14:59:51.148Z,99861.55
2022-11-25T15:01:01.846Z,99851.80
2022-11-25T15:02:04.137Z,99851.80
2022-11-25T15:03:06.288Z,99868.20
2022-11-25T15:04:23.318Z,99867.14
2022-11-25T15:06:57.692Z,99866.19
2022-11-25T15:08:02.501Z,99864.14
2022-11-25T15:09:20.197Z,99871.21
2022-11-25T15:10:41.527Z,99866.70
2022-11-25T15:11:43.734Z,99862.13
2022-11-25T15:12:50.058Z,99869.48
2022-11-25T15:14:04.053Z,99861.13
2022-11-25T15:15:10.025Z,99870.86
2022-11-25T15:16:17.348Z,99874.14
2022-11-25T15:17:32.477Z,99878.83
2022-11-25T15:18:34.742Z,99879.04
2022-11-25T15:19:37.818Z,99881.92
2022-11-25T15:20:40.260Z,99885.77
2022-11-25T15:22:14.571Z,99886.72
2022-11-25T15:24:00.912Z,99884.22
2022-11-25T15:25:08.705Z,99881.71
2022-11-25T15:27:34.796Z,99887.48
2022-11-25T15:28:37.560Z,99891.06
2022-11-25T15:31:18.307Z,99894.56
2022-11-25T15:32:28.213Z,99889.90
2022-11-25T15:33:30.828Z,99897.14
2022-11-25T15:34:34.625Z,99895.45
2022-11-25T15:35:37.405Z,99897.34
2022-11-25T15:36:40.692Z,99895.72
2022-11-25T15:37:43.795Z,99900.22
2022-11-25T15:38:47.142Z,99898.49
2022-11-25T15:39:50.107Z,99893.15
2022-11-25T15:40:55.207Z,99895.82
2022-11-25T15:42:03.853Z,99901.27
2022-11-25T15:45:48.603Z,99888.38
2022-11-25T15:48:06.227Z,99893.72
2022-11-25T15:49:12.491Z,99892.50
2022-11-25T15:50:25.405Z,99882.77
2022-11-25T15:51:54.808Z,99890.68
2022-11-25T15:52:58.386Z,99888.95
2022-11-25T15:54:23.320Z,99888.95
2022-11-25T15:55:32.143Z,99884.55
2022-11-25T15:56:37.980Z,99890.88
2022-11-25T15:57:40.145Z,99881.14
2022-11-25T15:58:43.591Z,99880.30
2022-11-25T15:59:47.914Z,99880.36
2022-11-25T16:02:44.362Z,99878.16
2022-11-25T16:03:47.106Z,99884.11
2022-11-25T16:04:49.970Z,99877.14
2022-11-25T16:05:53.306Z,99885.27
2022-11-25T16:06:56.744Z,99878.09
2022-11-25T16:08:20.384Z,99884.38
2022-11-25T16:09:24.050Z,99883.64
2022-11-25T16:10:33.258Z,99880.28
2022-11-25T16:11:39.097Z,99883.03
2022-11-25T16:12:41.422Z,99880.36
2022-11-25T16:13:43.644Z,99884.78
2022-11-25T16:14:46.051Z,99882.18
2022-11-25T16:15:58.117Z,99884.95
2022-11-25T16:17:03.514Z,99882.28
2022-11-25T16:18:32.287Z,99883.23
2022-11-25T16:19:15.994Z,99885.90
2022-11-25T16:20:18.871Z,99887.72
2022-11-25T16:22:37.971Z,99875.62
2022-11-25T16:23:43.347Z,99886.00
2022-11-25T16:24:57.300Z,99884.38
2022-11-25T16:26:01.007Z,99890.66
2022-11-25T16:27:22.720Z,99890.76
2022-11-25T16:28:27.374Z,99901.44
2022-11-25T16:29:51.486Z,99896.95
2022-11-25T16:30:57.845Z,99895.25
2022-11-25T16:31:59.435Z,99899.81
2022-11-25T16:33:01.731Z,99901.64
2022-11-25T16:34:19.416Z,99908.77
2022-11-25T16:35:22.896Z,99894.47
2022-11-25T16:36:26.402Z,99909.66
2022-11-25T16:37:29.010Z,99903.36
2022-11-25T16:38:31.651Z,99915.84
2022-11-25T16:39:33.763Z,99903.36
2022-11-25T16:40:36.657Z,99900.70
2022-11-25T16:41:39.686Z,99905.94
2022-11-25T16:42:46.511Z,99908.51
2022-11-25T16:43:50.652Z,99907.56
2022-11-25T16:44:53.121Z,99911.92
2022-11-25T16:45:55.259Z,99915.28
2022-11-25T16:46:58.719Z,99915.93
2022-11-25T16:48:00.867Z,99913.22
2022-11-25T16:49:16.767Z,99913.12
2022-11-25T16:50:20.224Z,99915.70
2022-11-25T16:51:23.361Z,99921.04
2022-11-25T16:52:25.835Z,99915.59
2022-11-25T16:53:28.268Z,99919.89
2022-11-25T16:54:31.416Z,99923.21
2022-11-25T16:55:33.540Z,99916.72
2022-11-25T16:56:37.019Z,99920.17
2022-11-25T16:57:40.424Z,99921.80
2022-11-25T16:58:42.977Z,99920.92
2022-11-25T16:59:46.291Z,99921.80
2022-11-25T17:00:54.491Z,99918.25
2022-11-25T17:01:56.850Z,99918.25
2022-11-25T17:03:00.304Z,99917.60
2022-11-25T17:04:03.930Z,99917.60
2022-11-25T17:05:18.961Z,99918.45
2022-11-25T17:06:23.442Z,99920.38
2022-11-25T17:07:33.075Z,99925.72
2022-11-25T17:08:32.717Z,99923.99
2022-11-25T17:09:34.973Z,99919.59
2022-11-25T17:10:37.364Z,99914.34
2022-11-25T17:13:02.571Z,99917.30
2022-11-25T17:14:08.694Z,99919.70
2022-11-25T17:15:17.662Z,99917.97
2022-11-25T17:16:25.456Z,99925.03
2022-11-25T17:17:27.912Z,99925.98
2022-11-25T17:18:30.115Z,99927.81
2022-11-25T17:19:34.431Z,99926.97
2022-11-25T17:20:36.937Z,99922.56
2022-11-25T17:21:39.598Z,99920.84
2022-11-25T17:22:43.752Z,99919.89
2022-11-25T17:23:50.129Z,99921.62
2022-11-25T17:24:51.446Z,99921.69
2022-11-25T17:25:53.527Z,99924.36
2022-11-25T17:27:02.809Z,99927.13
2022-11-25T17:28:05.879Z,99920.94
2022-11-25T17:29:14.723Z,99916.55
2022-11-25T17:30:20.164Z,99920.16
2022-11-25T17:31:25.232Z,99915.89
2022-11-25T17:32:27.470Z,99917.75
2022-11-25T17:33:33.534Z,99911.77
2022-11-25T17:34:39.477Z,99920.82
2022-11-25T17:35:39.711Z,99912.03
2022-11-25T17:36:43.238Z,99917.56
2022-11-25T17:37:45.894Z,99910.50
2022-11-25T17:38:47.981Z,99906.10
2022-11-25T17:39:51.403Z,99908.87
2022-11-25T17:40:53.983Z,99911.64
2022-11-25T17:41:56.050Z,99911.73
2022-11-25T17:42:59.331Z,99908.31
2022-11-25T17:44:02.940Z,99904.97
2022-11-25T17:45:15.728Z,99905.06
2022-11-25T17:46:19.210Z,99901.61
2022-11-25T17:47:22.678Z,99902.48
2022-11-25T17:48:24.978Z,99908.77
2022-11-25T17:49:28.638Z,99907.05
2022-11-25T17:50:31.032Z,99915.94
2022-11-25T17:51:33.927Z,99916.03
2022-11-25T17:52:36.761Z,99908.97
2022-11-25T17:53:39.458Z,99912.58
2022-11-25T17:54:41.546Z,99914.41
2022-11-25T17:55:44.609Z,99914.41
2022-11-25T17:56:52.042Z,99910.86
2022-11-25T17:57:51.774Z,99917.17
2022-11-25T17:58:54.745Z,99916.30
2022-11-25T17:59:58.155Z,99915.64
2022-11-25T18:01:00.817Z,99915.64
2022-11-25T18:03:21.051Z,99903.53
2022-11-25T18:04:28.048Z,99916.58
2022-11-25T18:05:30.743Z,99918.41
2022-11-25T18:06:33.140Z,99913.91
2022-11-25T18:07:37.459Z,99919.94
2022-11-25T18:08:40.678Z,99916.30
2022-11-25T18:09:43.268Z,99916.30
2022-11-25T18:10:46.026Z,99919.75
2022-11-25T18:11:50.450Z,99926.72
2022-11-25T18:12:53.782Z,99919.45
2022-11-25T18:13:55.857Z,99921.58
2022-11-25T18:14:57.989Z,99922.91
2022-11-25T18:16:00.994Z,99915.28
2022-11-25T18:17:05.272Z,99909.47
2022-11-25T18:18:18.027Z,99911.68
2022-11-25T18:19:20.419Z,99909.48
2022-11-25T18:20:24.793Z,99908.98
2022-11-25T18:21:28.791Z,99908.70
2022-11-25T18:22:30.954Z,99901.13
2022-11-25T18:23:35.043Z,99906.10
2022-11-25T18:24:37.715Z,99912.02
2022-11-25T18:25:43.213Z,99906.47
2022-11-25T18:26:48.189Z,99908.83
2022-11-25T18:27:51.655Z,99910.25
2022-11-25T18:28:54.322Z,99908.25
2022-11-25T18:29:57.117Z,99907.09
2022-11-25T18:31:02.064Z,99913.95
2022-11-25T18:32:04.864Z,99910.22
2022-11-25T18:34:25.818Z,99912.55
2022-11-25T18:35:35.812Z,99914.88
2022-11-25T18:36:34.560Z,99912.97
2022-11-25T18:37:38.014Z,99912.77
2022-11-25T18:38:40.196Z,99910.75
2022-11-25T18:39:42.276Z,99917.72
2022-11-25T18:40:51.846Z,99915.79
2022-11-25T18:41:49.684Z,99918.25
2022-11-25T18:42:53.903Z,99925.22
2022-11-25T18:43:58.824Z,99919.77
2022-11-25T18:45:02.345Z,99922.23
2022-11-25T18:46:05.054Z,99922.16
2022-11-25T18:47:12.657Z,99919.37
2022-11-25T18:48:17.679Z,99924.51
2022-11-25T18:49:20.116Z,99928.91
2022-11-25T18:50:26.208Z,99926.13
2022-11-25T18:51:29.334Z,99925.14
2022-11-25T18:52:31.506Z,99928.59
2022-11-25T18:53:34.656Z,99931.27
2022-11-25T22:51:10.472Z,99986.83
2022-11-25T22:52:27.029Z,99983.61
2022-11-25T22:53:29.220Z,99997.94
2022-11-25T22:54:32.395Z,99993.62
2022-11-25T22:55:34.559Z,99996.39
2022-11-25T22:56:36.772Z,99999.20
2022-11-25T22:57:39.701Z,99991.33
2022-11-25T22:58:41.775Z,99990.66
2022-11-25T22:59:44.389Z,99996.92
2022-11-25T23:00:46.593Z,99994.45
2022-11-25T23:01:48.719Z,99992.03
2022-11-25T23:02:51.611Z,99993.13
2022-11-25T23:03:54.483Z,99986.45
2022-11-25T23:04:56.994Z,99988.56
2022-11-25T23:06:01.321Z,99993.37
2022-11-25T23:07:06.869Z,99989.39
2022-11-25T23:08:15.803Z,99987.31
2022-11-25T23:09:19.144Z,99994.85
2022-11-25T23:10:23.406Z,99996.23
2022-11-25T23:11:25.516Z,100000.34
2022-11-25T23:12:27.608Z,99999.02
2022-11-25T23:13:32.597Z,99992.64
2022-11-25T23:14:35.751Z,99998.54
2022-11-25T23:15:39.520Z,99995.61
2022-11-25T23:16:42.727Z,99987.30
2022-11-25T23:19:03.408Z,99991.27
2022-11-25T23:20:12.282Z,99994.41
2022-11-25T23:21:19.133Z,99992.42
2022-11-25T23:22:22.393Z,99999.45
2022-11-25T23:23:25.955Z,100001.97
2022-11-25T23:24:28.140Z,99997.47
2022-11-25T23:25:31.180Z,99999.09
2022-11-25T23:26:35.171Z,100009.59
2022-11-25T23:27:37.591Z,100000.63
2022-11-25T23:28:40.492Z,100003.95
2022-11-25T23:29:42.784Z,99998.53
2022-11-25T23:30:56.590Z,100004.62
2022-11-25T23:32:00.842Z,100000.13
2022-11-25T23:33:04.795Z,100003.58
2022-11-25T23:34:09.461Z,100000.91
2022-11-25T23:35:23.437Z,100000.91
2022-11-25T23:36:32.511Z,100005.38
2022-11-25T23:37:34.801Z,100005.38
2022-11-25T23:39:53.887Z,100003.86
2022-11-25T23:40:57.401Z,100012.55
2022-11-25T23:41:59.695Z,100013.49
2022-11-25T23:43:02.275Z,100008.25
2022-11-25T23:45:28.028Z,100016.45
2022-11-25T23:46:32.397Z,100013.49
2022-11-25T23:47:34.548Z,100009.03
2022-11-25T23:48:36.640Z,100015.32
2022-11-25T23:49:40.171Z,100010.92
2022-11-25T23:50:42.437Z,100004.73
2022-11-25T23:51:46.035Z,100018.09
2022-11-25T23:52:49.775Z,100007.40
2022-11-25T23:53:51.929Z,100013.49
2022-11-25T23:54:55.115Z,100015.22
2022-11-25T23:55:57.649Z,100020.56
2022-11-25T23:56:59.719Z,100019.72
2022-11-25T23:58:03.298Z,100019.81
2022-11-25T23:59:14.629Z,100017.99
